Lyman, Wyoming
Current Conditions -  °F | °C
As of 2:35 PM on Sunday 21 Dec 2014 (Local Time) from KFBR Reporting Station
Drizzle Drizzle  
Wind Chill: 26°   Ceiling: 1800
Heat Index: 38°   Visibility: 10mi
Dew Point: 36°   Wind: 29mph
Humidity: 91%   Direction: 260°W
Pressure: 29.78"   Gusts: 40mph
Location:  41.33°N, 110.29°W
Report Text: KFBR 212135Z AUTO 26025G35KT 10SM -DZ SCT012 BKN018 OVC042 04/02 A2978 RMK AO2 T00350022
Loading
Personal Weather Stations






























Interactive Weather Map New forecast layout! Learn more

10-Day Weather Forecast

Advertisements
Track Severe Weather on mobile